Martin Challenger — WDB2346 — position and weather

sailwx.info

Track history (hours):
 
Tides and Currents Weather Stations Pressure Air Temp Water Temp Dewpoint Dewpoint Depression Visibility Wind Speed Wind Dir Waves Ship Positions

Martin Challenger

More information available from US FCC via Universal Licensing System and Coast Guard Vessel Documentation Center.

Last reported at 2014-Aug-01 09:34 UTC. Time now 2014-Aug-01 09:50 UTC.
Position N 29°46' W 095°05'.

Length 20 m; draft 2.9 m.

MMSI: 366874920.

Date/timePositionNaut miles runAvg speedWind from/ knotsBaromVisibWave heightAir tempDewpointWater temp
2014-Aug-01 09:34N 29°46' W 095°05'0 0.0
2014-Aug-01 08:34N 29°46' W 095°05'0 0.0
2014-Aug-01 07:33N 29°46' W 095°05'0 0.0
2014-Aug-01 06:34N 29°46' W 095°05'0 0.0
2014-Aug-01 05:33N 29°46' W 095°05'0 0.0
2014-Aug-01 04:33N 29°46' W 095°05'0 0.0
2014-Aug-01 03:34N 29°46' W 095°05'0 0.3
2014-Aug-01 02:33N 29°46' W 095°05'1 1.0
2014-Aug-01 01:33N 29°47' W 095°05'0 0.0
2014-Aug-01 00:34N 29°47' W 095°05'0 0.0
2014-Jul-31 23:33N 29°47' W 095°05'0 0.0
2014-Jul-31 22:34N 29°47' W 095°05'0 0.0
2014-Jul-31 21:34N 29°47' W 095°05'0 0.0
2014-Jul-31 20:33N 29°47' W 095°05'0 0.0
2014-Jul-31 19:34N 29°47' W 095°05'0 0.0
2014-Jul-31 18:33N 29°47' W 095°05'0 0.0
2014-Jul-31 17:34N 29°47' W 095°05'0 0.0
2014-Jul-31 16:34N 29°47' W 095°05'0 0.0
2014-Jul-31 15:34N 29°47' W 095°05'0 0.0
2014-Jul-31 14:34N 29°47' W 095°05'0 0.0
2014-Jul-31 13:34N 29°47' W 095°05'0 0.3
2014-Jul-31 12:34N 29°47' W 095°05'4 3.5
2014-Jul-31 11:34N 29°44' W 095°02'4 3.9
2014-Jul-31 10:33N 29°41' W 094°59'3 3.3
2014-Jul-31 09:33N 29°38' W 094°58'4 3.9
2014-Jul-31 08:33N 29°34' W 094°56'4 3.7
2014-Jul-31 07:32N 29°31' W 094°53'9 0.2
2014-Jul-29 06:28N 29°22' W 094°53'0 0.0
2014-Jul-29 05:17N 29°22' W 094°53'8 0.5
2014-Jul-28 14:18N 29°24' W 094°45'0 0.0
2014-Jul-28 13:07N 29°24' W 094°45'0 0.0
2014-Jul-28 12:32N 29°24' W 094°45'0 0.0
2014-Jul-28 08:24N 29°24' W 094°45'0 0.0
2014-Jul-28 07:29N 29°24' W 094°45'0 0.0
2014-Jul-27 14:20N 29°24' W 094°45'0 0.0
2014-Jul-27 11:14N 29°24' W 094°45'19 0.5
2014-Jul-26 00:24N 29°39' W 094°58'4 4.6
2014-Jul-25 23:33N 29°42' W 095°01'2 1.9
2014-Jul-25 22:32N 29°44' W 095°01'0 0.0
2014-Jul-25 21:33N 29°44' W 095°01'0 0.0
2014-Jul-25 20:33N 29°44' W 095°01'0 0.0
2014-Jul-25 19:34N 29°44' W 095°01'0 0.1
2014-Jul-25 18:31N 29°44' W 095°01'0 0.0
2014-Jul-25 17:34N 29°44' W 095°01'0 0.0
2014-Jul-25 16:34N 29°44' W 095°01'0 0.0
2014-Jul-25 15:34N 29°44' W 095°01'0 0.0
2014-Jul-25 14:34N 29°44' W 095°01'0 0.0
2014-Jul-25 13:33N 29°44' W 095°01'0 0.0
2014-Jul-25 12:34N 29°44' W 095°01'0 0.0
2014-Jul-25 11:33N 29°44' W 095°01'0 0.0
2014-Jul-25 10:34N 29°44' W 095°01'0 0.0
2014-Jul-25 09:33N 29°44' W 095°01'0 0.0
2014-Jul-25 08:33N 29°44' W 095°01'0 0.0
2014-Jul-25 07:33N 29°44' W 095°01'0 0.0
2014-Jul-25 06:34N 29°44' W 095°01'0 0.0
2014-Jul-25 05:34N 29°44' W 095°01'0 0.1
2014-Jul-25 04:34N 29°44' W 095°01'0 0.0
2014-Jul-25 03:33N 29°44' W 095°01'0 0.0
2014-Jul-25 02:34N 29°44' W 095°01'0 0.0
2014-Jul-25 01:34N 29°44' W 095°01'0 0.0
2014-Jul-25 00:33N 29°44' W 095°01'1 0.7
2014-Jul-24 23:34N 29°43' W 095°01'4 4.4
2014-Jul-24 22:33N 29°46' W 095°05'0 0.2
2014-Jul-24 21:34N 29°46' W 095°06'0 0.0
2014-Jul-24 20:34N 29°46' W 095°06'0 0.0
2014-Jul-24 19:34N 29°46' W 095°06'0 0.0
2014-Jul-24 18:29N 29°46' W 095°06'0 0.0
2014-Jul-24 17:31N 29°46' W 095°06'0 0.0
2014-Jul-24 16:32N 29°46' W 095°05'0 0.0
2014-Jul-24 15:31N 29°46' W 095°05'0 0.0
2014-Jul-24 14:33N 29°46' W 095°05'0 0.0
2014-Jul-24 13:20N 29°46' W 095°05'0 0.0
2014-Jul-24 12:32N 29°46' W 095°05'0 0.0
2014-Jul-24 11:33N 29°46' W 095°05'0 0.0
2014-Jul-24 10:34N 29°46' W 095°05'0 0.0
2014-Jul-24 08:34N 29°46' W 095°05'0 0.0
2014-Jul-24 07:34N 29°46' W 095°05'0 0.0
2014-Jul-24 06:34N 29°46' W 095°05'0 0.0
2014-Jul-24 05:33N 29°46' W 095°05'1 1.1
2014-Jul-24 04:33N 29°47' W 095°05'0 0.0
2014-Jul-24 03:34N 29°47' W 095°05'0 0.0
2014-Jul-24 02:33N 29°47' W 095°05'0 0.0
2014-Jul-24 01:34N 29°47' W 095°05'0 0.1
2014-Jul-24 00:34N 29°47' W 095°05'0 0.0
2014-Jul-23 23:33N 29°47' W 095°05'0 0.0
2014-Jul-23 22:33N 29°47' W 095°05'0 0.0
2014-Jul-23 21:34N 29°47' W 095°05'0 0.1
2014-Jul-23 20:33N 29°47' W 095°05'0 0.0
2014-Jul-23 19:33N 29°47' W 095°05'0 0.0
2014-Jul-23 18:33N 29°47' W 095°05'0 0.0
2014-Jul-23 17:33N 29°47' W 095°05'0 0.0
2014-Jul-23 16:33N 29°47' W 095°05'0 0.0
2014-Jul-23 15:34N 29°47' W 095°05'0 0.0
2014-Jul-23 14:33N 29°47' W 095°05'0 0.0
2014-Jul-23 13:33N 29°47' W 095°05'0 0.0
2014-Jul-23 12:34N 29°47' W 095°05'0 0.0
2014-Jul-23 11:34N 29°47' W 095°05'2 2.3
2014-Jul-23 10:34N 29°45' W 095°06'0 0.1
2014-Jul-23 09:31N 29°45' W 095°06'0 0.0
2014-Jul-23 08:31N 29°45' W 095°06'0 0.0
2014-Jul-23 07:33N 29°45' W 095°06'0 0.0
2014-Jul-23 06:33N 29°45' W 095°06'0 0.0
2014-Jul-23 05:33N 29°45' W 095°06'0 0.0
2014-Jul-23 04:33N 29°45' W 095°06'0 0.0
2014-Jul-23 03:33N 29°45' W 095°06'0 0.0
2014-Jul-23 02:33N 29°45' W 095°06'0 0.0
2014-Jul-23 01:33N 29°45' W 095°06'0 0.0
2014-Jul-23 00:33N 29°45' W 095°06'0 0.0
2014-Jul-22 23:33N 29°45' W 095°06'0 0.0
2014-Jul-22 22:34N 29°45' W 095°06'0 0.0
2014-Jul-22 21:33N 29°45' W 095°06'1 1.4
2014-Jul-22 20:33N 29°46' W 095°06'1 1.4
2014-Jul-22 19:34N 29°45' W 095°06'0 0.0
2014-Jul-22 18:34N 29°45' W 095°06'0 0.0
2014-Jul-22 17:34N 29°45' W 095°06'0 0.0
2014-Jul-22 16:33N 29°45' W 095°06'1 1.4
2014-Jul-22 15:33N 29°46' W 095°06'1 1.4
2014-Jul-22 14:33N 29°45' W 095°06'0 0.1
2014-Jul-22 13:32N 29°45' W 095°06'1 1.3
2014-Jul-22 12:34N 29°46' W 095°05'0 0.1
2014-Jul-22 11:34N 29°46' W 095°05'1 0.9
2014-Jul-22 10:34N 29°46' W 095°06'  
Track history (hours):
 
Tides and Currents Weather Stations Pressure Air Temp Water Temp Dewpoint Dewpoint Depression Visibility Wind Speed Wind Dir Waves Ship Positions

Martin Challenger

More information available from US FCC via Universal Licensing System and Coast Guard Vessel Documentation Center.

Last reported at 2014-Aug-01 09:34 UTC. Time now 2014-Aug-01 09:50 UTC.
Position N 29°46' W 095°05'.

Length 20 m; draft 2.9 m.

MMSI: 366874920.

Date/timePositionNaut miles runAvg speedWind from/ knotsBaromVisibWave heightAir tempDewpointWater temp
2014-Aug-01 09:34N 29°46' W 095°05'0 0.0
2014-Aug-01 08:34N 29°46' W 095°05'0 0.0
2014-Aug-01 07:33N 29°46' W 095°05'0 0.0
2014-Aug-01 06:34N 29°46' W 095°05'0 0.0
2014-Aug-01 05:33N 29°46' W 095°05'0 0.0
2014-Aug-01 04:33N 29°46' W 095°05'0 0.0
2014-Aug-01 03:34N 29°46' W 095°05'0 0.3
2014-Aug-01 02:33N 29°46' W 095°05'1 1.0
2014-Aug-01 01:33N 29°47' W 095°05'0 0.0
2014-Aug-01 00:34N 29°47' W 095°05'0 0.0
2014-Jul-31 23:33N 29°47' W 095°05'0 0.0
2014-Jul-31 22:34N 29°47' W 095°05'0 0.0
2014-Jul-31 21:34N 29°47' W 095°05'0 0.0
2014-Jul-31 20:33N 29°47' W 095°05'0 0.0
2014-Jul-31 19:34N 29°47' W 095°05'0 0.0
2014-Jul-31 18:33N 29°47' W 095°05'0 0.0
2014-Jul-31 17:34N 29°47' W 095°05'0 0.0
2014-Jul-31 16:34N 29°47' W 095°05'0 0.0
2014-Jul-31 15:34N 29°47' W 095°05'0 0.0
2014-Jul-31 14:34N 29°47' W 095°05'0 0.0
2014-Jul-31 13:34N 29°47' W 095°05'0 0.3
2014-Jul-31 12:34N 29°47' W 095°05'4 3.5
2014-Jul-31 11:34N 29°44' W 095°02'4 3.9
2014-Jul-31 10:33N 29°41' W 094°59'3 3.3
2014-Jul-31 09:33N 29°38' W 094°58'4 3.9
2014-Jul-31 08:33N 29°34' W 094°56'4 3.7
2014-Jul-31 07:32N 29°31' W 094°53'9 0.2
2014-Jul-29 06:28N 29°22' W 094°53'0 0.0
2014-Jul-29 05:17N 29°22' W 094°53'8 0.5
2014-Jul-28 14:18N 29°24' W 094°45'0 0.0
2014-Jul-28 13:07N 29°24' W 094°45'0 0.0
2014-Jul-28 12:32N 29°24' W 094°45'0 0.0
2014-Jul-28 08:24N 29°24' W 094°45'0 0.0
2014-Jul-28 07:29N 29°24' W 094°45'0 0.0
2014-Jul-27 14:20N 29°24' W 094°45'0 0.0
2014-Jul-27 11:14N 29°24' W 094°45'19 0.5
2014-Jul-26 00:24N 29°39' W 094°58'4 4.6
2014-Jul-25 23:33N 29°42' W 095°01'2 1.9
2014-Jul-25 22:32N 29°44' W 095°01'0 0.0
2014-Jul-25 21:33N 29°44' W 095°01'0 0.0
2014-Jul-25 20:33N 29°44' W 095°01'0 0.0
2014-Jul-25 19:34N 29°44' W 095°01'0 0.1
2014-Jul-25 18:31N 29°44' W 095°01'0 0.0
2014-Jul-25 17:34N 29°44' W 095°01'0 0.0
2014-Jul-25 16:34N 29°44' W 095°01'0 0.0
2014-Jul-25 15:34N 29°44' W 095°01'0 0.0
2014-Jul-25 14:34N 29°44' W 095°01'0 0.0
2014-Jul-25 13:33N 29°44' W 095°01'0 0.0
2014-Jul-25 12:34N 29°44' W 095°01'0 0.0
2014-Jul-25 11:33N 29°44' W 095°01'0 0.0
2014-Jul-25 10:34N 29°44' W 095°01'0 0.0
2014-Jul-25 09:33N 29°44' W 095°01'0 0.0
2014-Jul-25 08:33N 29°44' W 095°01'0 0.0
2014-Jul-25 07:33N 29°44' W 095°01'0 0.0
2014-Jul-25 06:34N 29°44' W 095°01'0 0.0
2014-Jul-25 05:34N 29°44' W 095°01'0 0.1
2014-Jul-25 04:34N 29°44' W 095°01'0 0.0
2014-Jul-25 03:33N 29°44' W 095°01'0 0.0
2014-Jul-25 02:34N 29°44' W 095°01'0 0.0
2014-Jul-25 01:34N 29°44' W 095°01'0 0.0
2014-Jul-25 00:33N 29°44' W 095°01'1 0.7
2014-Jul-24 23:34N 29°43' W 095°01'4 4.4
2014-Jul-24 22:33N 29°46' W 095°05'0 0.2
2014-Jul-24 21:34N 29°46' W 095°06'0 0.0
2014-Jul-24 20:34N 29°46' W 095°06'0 0.0
2014-Jul-24 19:34N 29°46' W 095°06'0 0.0
2014-Jul-24 18:29N 29°46' W 095°06'0 0.0
2014-Jul-24 17:31N 29°46' W 095°06'0 0.0
2014-Jul-24 16:32N 29°46' W 095°05'0 0.0
2014-Jul-24 15:31N 29°46' W 095°05'0 0.0
2014-Jul-24 14:33N 29°46' W 095°05'0 0.0
2014-Jul-24 13:20N 29°46' W 095°05'0 0.0
2014-Jul-24 12:32N 29°46' W 095°05'0 0.0
2014-Jul-24 11:33N 29°46' W 095°05'0 0.0
2014-Jul-24 10:34N 29°46' W 095°05'0 0.0
2014-Jul-24 08:34N 29°46' W 095°05'0 0.0
2014-Jul-24 07:34N 29°46' W 095°05'0 0.0
2014-Jul-24 06:34N 29°46' W 095°05'0 0.0
2014-Jul-24 05:33N 29°46' W 095°05'1 1.1
2014-Jul-24 04:33N 29°47' W 095°05'0 0.0
2014-Jul-24 03:34N 29°47' W 095°05'0 0.0
2014-Jul-24 02:33N 29°47' W 095°05'0 0.0
2014-Jul-24 01:34N 29°47' W 095°05'0 0.1
2014-Jul-24 00:34N 29°47' W 095°05'0 0.0
2014-Jul-23 23:33N 29°47' W 095°05'0 0.0
2014-Jul-23 22:33N 29°47' W 095°05'0 0.0
2014-Jul-23 21:34N 29°47' W 095°05'0 0.1
2014-Jul-23 20:33N 29°47' W 095°05'0 0.0
2014-Jul-23 19:33N 29°47' W 095°05'0 0.0
2014-Jul-23 18:33N 29°47' W 095°05'0 0.0
2014-Jul-23 17:33N 29°47' W 095°05'0 0.0
2014-Jul-23 16:33N 29°47' W 095°05'0 0.0
2014-Jul-23 15:34N 29°47' W 095°05'0 0.0
2014-Jul-23 14:33N 29°47' W 095°05'0 0.0
2014-Jul-23 13:33N 29°47' W 095°05'0 0.0
2014-Jul-23 12:34N 29°47' W 095°05'0 0.0
2014-Jul-23 11:34N 29°47' W 095°05'2 2.3
2014-Jul-23 10:34N 29°45' W 095°06'0 0.1
2014-Jul-23 09:31N 29°45' W 095°06'0 0.0
2014-Jul-23 08:31N 29°45' W 095°06'0 0.0
2014-Jul-23 07:33N 29°45' W 095°06'0 0.0
2014-Jul-23 06:33N 29°45' W 095°06'0 0.0
2014-Jul-23 05:33N 29°45' W 095°06'0 0.0
2014-Jul-23 04:33N 29°45' W 095°06'0 0.0
2014-Jul-23 03:33N 29°45' W 095°06'0 0.0
2014-Jul-23 02:33N 29°45' W 095°06'0 0.0
2014-Jul-23 01:33N 29°45' W 095°06'0 0.0
2014-Jul-23 00:33N 29°45' W 095°06'0 0.0
2014-Jul-22 23:33N 29°45' W 095°06'0 0.0
2014-Jul-22 22:34N 29°45' W 095°06'0 0.0
2014-Jul-22 21:33N 29°45' W 095°06'1 1.4
2014-Jul-22 20:33N 29°46' W 095°06'1 1.4
2014-Jul-22 19:34N 29°45' W 095°06'0 0.0
2014-Jul-22 18:34N 29°45' W 095°06'0 0.0
2014-Jul-22 17:34N 29°45' W 095°06'0 0.0
2014-Jul-22 16:33N 29°45' W 095°06'1 1.4
2014-Jul-22 15:33N 29°46' W 095°06'1 1.4
2014-Jul-22 14:33N 29°45' W 095°06'0 0.1
2014-Jul-22 13:32N 29°45' W 095°06'1 1.3
2014-Jul-22 12:34N 29°46' W 095°05'0 0.1
2014-Jul-22 11:34N 29°46' W 095°05'1 0.9
2014-Jul-22 10:34N 29°46' W 095°06'  

Dump ship's entire track history